createdAt,value
2017-10-26T00:00:45.182Z,9.80
2017-10-26T00:03:12.947Z,9.80
2017-10-26T00:05:40.487Z,9.80
2017-10-26T00:08:08.034Z,9.80
2017-10-26T00:10:35.801Z,9.80
2017-10-26T00:13:03.356Z,9.80
2017-10-26T00:15:30.908Z,9.80
2017-10-26T00:17:58.499Z,9.80
2017-10-26T00:20:26.056Z,9.80
2017-10-26T00:22:54.396Z,9.90
2017-10-26T00:25:22.001Z,9.80
2017-10-26T00:27:49.555Z,9.90
2017-10-26T00:30:17.104Z,9.90
2017-10-26T00:32:44.695Z,9.90
2017-10-26T00:35:12.244Z,9.90
2017-10-26T00:37:40.561Z,9.80
2017-10-26T00:40:08.337Z,9.80
2017-10-26T00:42:35.895Z,9.90
2017-10-26T00:45:04.209Z,9.90
2017-10-26T00:47:31.804Z,9.90
2017-10-26T00:50:00.114Z,9.90
2017-10-26T00:52:27.665Z,9.90
2017-10-26T00:54:55.264Z,10.00
2017-10-26T00:57:23.599Z,10.00
2017-10-26T00:59:51.320Z,10.00
2017-10-26T01:02:18.928Z,10.00
2017-10-26T01:04:46.516Z,10.00
2017-10-26T01:07:14.068Z,10.00
2017-10-26T01:09:42.432Z,10.00
2017-10-26T01:12:09.980Z,10.00
2017-10-26T01:14:37.527Z,10.00
2017-10-26T01:17:05.215Z,10.00
2017-10-26T01:19:33.533Z,10.00
2017-10-26T01:22:01.083Z,10.00
2017-10-26T01:24:28.691Z,10.00
2017-10-26T01:26:57.011Z,10.00
2017-10-26T01:29:24.576Z,10.00
2017-10-26T01:31:52.168Z,10.00
2017-10-26T01:34:19.721Z,10.00
2017-10-26T01:36:47.282Z,10.00
2017-10-26T01:39:15.067Z,10.10
2017-10-26T01:41:43.380Z,10.10
2017-10-26T01:44:10.939Z,10.00
2017-10-26T01:46:38.719Z,10.10
2017-10-26T01:49:07.040Z,10.10
2017-10-26T01:51:34.615Z,10.10
2017-10-26T01:54:02.718Z,10.10
2017-10-26T01:56:30.278Z,10.10
2017-10-26T01:58:57.832Z,10.10
2017-10-26T02:01:25.440Z,10.10
2017-10-26T02:03:52.996Z,10.10
2017-10-26T02:06:20.560Z,10.10
2017-10-26T02:08:48.144Z,10.20
2017-10-26T02:11:17.212Z,10.20
2017-10-26T02:13:44.768Z,10.10
2017-10-26T02:16:12.524Z,10.20
2017-10-26T02:18:40.840Z,10.20
2017-10-26T02:21:08.393Z,10.20
2017-10-26T02:23:36.759Z,10.20
2017-10-26T02:26:04.320Z,10.20
2017-10-26T02:31:37.603Z,10.20
2017-10-26T02:34:05.203Z,10.10
2017-10-26T02:36:32.847Z,10.20
2017-10-26T02:39:00.407Z,10.10
2017-10-26T02:41:28.885Z,10.10
2017-10-26T02:43:56.506Z,10.10
2017-10-26T02:46:25.140Z,10.10
2017-10-26T02:48:52.736Z,10.10
2017-10-26T02:51:20.293Z,10.10
2017-10-26T02:53:47.851Z,10.10
2017-10-26T02:56:16.229Z,10.10
2017-10-26T02:58:43.784Z,10.10
2017-10-26T03:01:11.344Z,10.10
2017-10-26T03:03:39.200Z,10.10
2017-10-26T03:06:06.747Z,10.10
2017-10-26T03:08:34.311Z,10.10
2017-10-26T03:11:02.027Z,10.10
2017-10-26T03:13:29.588Z,10.10
2017-10-26T03:15:57.921Z,10.10
2017-10-26T03:18:25.683Z,10.10
2017-10-26T03:20:53.252Z,10.10
2017-10-26T03:23:21.568Z,10.10
2017-10-26T03:25:49.332Z,10.10
2017-10-26T03:28:16.895Z,10.10
2017-10-26T03:30:45.213Z,10.10
2017-10-26T03:33:12.821Z,10.10
2017-10-26T03:35:40.376Z,10.10
2017-10-26T03:38:07.935Z,10.10
2017-10-26T03:40:35.688Z,10.10
2017-10-26T03:43:03.257Z,10.10
2017-10-26T03:45:30.821Z,10.10
2017-10-26T03:47:58.424Z,10.10
2017-10-26T03:50:25.978Z,10.10
2017-10-26T03:52:55.046Z,10.10
2017-10-26T03:55:23.390Z,10.10
2017-10-26T03:57:50.944Z,10.10
2017-10-26T04:00:18.497Z,10.10
2017-10-26T04:02:47.004Z,10.10
2017-10-26T04:05:14.558Z,10.10
2017-10-26T04:07:42.119Z,10.10
2017-10-26T04:10:09.720Z,10.10
2017-10-26T04:12:37.279Z,10.10
2017-10-26T04:15:04.840Z,10.10
2017-10-26T04:17:32.440Z,10.20
2017-10-26T04:20:00.759Z,10.20
2017-10-26T04:22:28.319Z,10.20
2017-10-26T04:24:56.031Z,10.20
2017-10-26T04:27:23.592Z,10.10
2017-10-26T04:29:51.152Z,10.20
2017-10-26T04:32:18.756Z,10.20
2017-10-26T04:34:46.313Z,10.10
2017-10-26T04:37:13.872Z,10.20
2017-10-26T04:39:42.252Z,10.10
2017-10-26T04:42:09.805Z,10.10
2017-10-26T04:44:37.363Z,10.20
2017-10-26T04:47:05.154Z,10.10
2017-10-26T04:49:32.725Z,10.10
2017-10-26T04:52:00.283Z,10.10
2017-10-26T04:54:28.025Z,10.10
2017-10-26T04:56:55.579Z,10.10
2017-10-26T04:59:23.137Z,10.20
2017-10-26T05:01:50.923Z,10.20
2017-10-26T05:04:18.475Z,10.20
2017-10-26T05:06:46.801Z,10.20
2017-10-26T05:09:14.576Z,11.50
2017-10-26T05:11:42.127Z,10.20
2017-10-26T05:14:10.440Z,10.20
2017-10-26T05:16:38.030Z,10.20
2017-10-26T05:19:06.352Z,10.20
2017-10-26T05:21:33.904Z,10.20
2017-10-26T05:24:01.683Z,10.20
2017-10-26T05:26:30.005Z,10.30
2017-10-26T05:28:58.005Z,10.30
2017-10-26T05:31:26.386Z,10.30
2017-10-26T05:33:53.947Z,10.30
2017-10-26T05:36:22.271Z,10.30
2017-10-26T05:38:49.875Z,10.30
2017-10-26T05:41:17.441Z,10.30
2017-10-26T05:43:44.992Z,10.30
2017-10-26T05:46:12.767Z,10.30
2017-10-26T05:48:40.336Z,10.30
2017-10-26T05:51:07.887Z,10.30
2017-10-26T05:53:35.596Z,10.30
2017-10-26T05:56:03.164Z,10.30
2017-10-26T05:58:31.487Z,10.40
2017-10-26T06:00:59.095Z,10.30
2017-10-26T06:03:26.647Z,10.40
2017-10-26T06:05:54.204Z,10.40
2017-10-26T06:08:21.805Z,10.40
2017-10-26T06:10:50.125Z,10.40
2017-10-26T06:13:17.676Z,10.40
2017-10-26T06:15:45.365Z,10.40
2017-10-26T06:18:12.988Z,10.40
2017-10-26T06:20:41.303Z,10.40
2017-10-26T06:23:09.095Z,10.40
2017-10-26T06:25:37.428Z,10.40
2017-10-26T06:28:04.980Z,10.40
2017-10-26T06:30:33.363Z,10.40
2017-10-26T06:33:01.688Z,10.50
2017-10-26T06:35:29.243Z,10.40
2017-10-26T06:37:56.844Z,10.50
2017-10-26T06:40:24.407Z,10.50
2017-10-26T06:42:51.964Z,10.50
2017-10-26T06:45:19.572Z,10.50
2017-10-26T06:47:47.136Z,10.50
2017-10-26T06:50:14.687Z,10.50
2017-10-26T06:52:42.296Z,10.60
2017-10-26T06:55:09.851Z,10.60
2017-10-26T06:57:37.411Z,10.60
2017-10-26T07:00:05.020Z,10.70
2017-10-26T07:02:32.594Z,10.70
2017-10-26T07:05:00.156Z,10.70
2017-10-26T07:07:27.860Z,10.70
2017-10-26T07:09:55.415Z,10.70
2017-10-26T07:12:22.967Z,10.80
2017-10-26T07:14:50.772Z,10.80
2017-10-26T07:17:19.102Z,10.90
2017-10-26T07:19:46.655Z,10.80
2017-10-26T07:22:14.416Z,10.90
2017-10-26T07:24:42.744Z,11.00
2017-10-26T07:27:10.299Z,11.00
2017-10-26T07:29:38.063Z,11.00
2017-10-26T07:32:05.627Z,11.10
2017-10-26T07:34:33.952Z,11.20
2017-10-26T07:37:02.511Z,11.20
2017-10-26T07:39:30.069Z,11.20
2017-10-26T07:41:58.396Z,11.40
2017-10-26T07:44:26.003Z,11.30
2017-10-26T07:46:53.575Z,11.40
2017-10-26T07:49:21.135Z,11.40
2017-10-26T07:51:48.740Z,11.40
2017-10-26T07:54:16.304Z,11.40
2017-10-26T07:56:43.854Z,11.40
2017-10-26T07:59:11.626Z,11.40
2017-10-26T08:01:39.191Z,11.50
2017-10-26T08:04:06.746Z,11.50
2017-10-26T08:06:34.560Z,11.60
2017-10-26T08:09:02.124Z,11.60
2017-10-26T08:11:30.915Z,11.60
2017-10-26T08:13:58.520Z,11.60
2017-10-26T08:16:26.081Z,11.60
2017-10-26T08:18:54.523Z,11.70
2017-10-26T08:21:23.069Z,11.70
2017-10-26T08:23:51.476Z,11.70
2017-10-26T08:26:19.087Z,11.70
2017-10-26T08:28:46.712Z,11.70
2017-10-26T08:31:14.270Z,11.70
2017-10-26T08:33:41.875Z,11.70
2017-10-26T08:36:10.254Z,11.80
2017-10-26T08:38:38.579Z,11.80
2017-10-26T08:41:06.236Z,11.80
2017-10-26T08:43:34.116Z,11.80
2017-10-26T08:46:01.692Z,11.80
2017-10-26T08:48:29.253Z,11.80
2017-10-26T08:50:56.860Z,11.80
2017-10-26T08:53:24.427Z,11.90
2017-10-26T08:55:52.127Z,11.90
2017-10-26T08:58:20.511Z,11.90
2017-10-26T09:00:48.082Z,11.90
2017-10-26T09:03:15.656Z,11.90
2017-10-26T09:05:43.355Z,11.90
2017-10-26T09:08:10.910Z,11.90
2017-10-26T09:10:38.471Z,12.00
2017-10-26T09:13:06.095Z,11.90
2017-10-26T09:15:33.652Z,11.90
2017-10-26T09:18:01.223Z,11.90
2017-10-26T09:20:28.832Z,12.00
2017-10-26T09:22:56.389Z,12.00
2017-10-26T09:25:23.971Z,12.00
2017-10-26T09:27:52.415Z,12.00
2017-10-26T09:30:19.975Z,12.00
2017-10-26T09:32:48.300Z,12.10
2017-10-26T09:35:15.907Z,12.00
2017-10-26T09:37:43.488Z,12.10
2017-10-26T09:40:11.073Z,12.10
2017-10-26T09:42:38.701Z,12.20
2017-10-26T09:45:06.272Z,12.20
2017-10-26T09:47:34.005Z,12.30
2017-10-26T09:50:01.784Z,12.30
2017-10-26T09:52:29.350Z,12.30
2017-10-26T09:54:56.927Z,12.30
2017-10-26T09:57:24.796Z,12.40
2017-10-26T09:59:52.395Z,12.40
2017-10-26T10:02:19.960Z,12.40
2017-10-26T10:04:47.563Z,12.40
2017-10-26T10:07:15.884Z,12.50
2017-10-26T10:09:43.444Z,12.40
2017-10-26T10:12:11.278Z,12.40
2017-10-26T10:14:38.852Z,12.50
2017-10-26T10:17:07.181Z,12.50
2017-10-26T10:19:34.791Z,12.50
2017-10-26T10:22:02.356Z,12.50
2017-10-26T10:24:29.921Z,12.60
2017-10-26T10:26:57.536Z,12.70
2017-10-26T10:29:25.124Z,12.80
2017-10-26T10:31:52.692Z,13.00
2017-10-26T10:34:21.194Z,13.40
2017-10-26T10:36:49.355Z,13.40
2017-10-26T10:39:16.956Z,13.60
2017-10-26T10:41:44.591Z,13.70
2017-10-26T10:44:12.180Z,13.80
2017-10-26T10:46:39.762Z,13.90
2017-10-26T10:49:08.135Z,14.00
2017-10-26T10:51:36.464Z,14.10
2017-10-26T10:54:04.032Z,14.10
2017-10-26T10:56:32.544Z,14.10
2017-10-26T10:59:05.835Z,14.10
2017-10-26T11:01:33.615Z,14.20
2017-10-26T11:04:01.181Z,14.30
2017-10-26T11:06:28.747Z,14.30
2017-10-26T11:08:56.357Z,14.30
2017-10-26T11:11:24.681Z,14.40
2017-10-26T11:13:52.240Z,14.40
2017-10-26T11:16:19.848Z,14.30
2017-10-26T11:18:47.416Z,14.40
2017-10-26T11:21:14.984Z,14.50
2017-10-26T11:23:42.739Z,14.60
2017-10-26T11:26:11.086Z,14.70
2017-10-26T11:28:38.651Z,14.60
2017-10-26T11:31:07.204Z,14.90
2017-10-26T11:33:34.768Z,14.90
2017-10-26T11:36:02.331Z,15.10
2017-10-26T11:38:29.944Z,15.20
2017-10-26T11:40:57.514Z,15.30
2017-10-26T11:43:25.075Z,15.40
2017-10-26T11:45:52.822Z,15.40
2017-10-26T11:48:20.380Z,15.50
2017-10-26T11:50:47.952Z,15.60
2017-10-26T11:53:15.550Z,15.60
2017-10-26T11:55:43.118Z,15.60
2017-10-26T11:58:11.444Z,15.70
2017-10-26T12:00:39.057Z,15.70
2017-10-26T12:03:06.627Z,15.90
2017-10-26T12:05:34.202Z,16.00
2017-10-26T12:08:02.597Z,16.10
2017-10-26T12:10:30.159Z,16.10
2017-10-26T12:12:57.725Z,16.20
2017-10-26T12:15:25.501Z,16.20
2017-10-26T12:17:53.056Z,16.10
2017-10-26T12:20:21.384Z,15.90
2017-10-26T12:22:49.159Z,15.90
2017-10-26T12:25:17.480Z,15.80
2017-10-26T12:27:45.043Z,15.80
2017-10-26T12:30:12.808Z,15.80
2017-10-26T12:32:41.135Z,15.80
2017-10-26T12:35:08.692Z,15.80
2017-10-26T12:37:37.071Z,15.70
2017-10-26T12:40:04.623Z,15.70
2017-10-26T12:42:32.189Z,15.60
2017-10-26T12:44:59.812Z,15.60
2017-10-26T12:47:27.373Z,15.50
2017-10-26T12:49:54.947Z,15.50
2017-10-26T12:52:22.804Z,15.50
2017-10-26T12:54:51.145Z,15.40
2017-10-26T12:57:18.712Z,15.40
2017-10-26T12:59:47.072Z,15.30
2017-10-26T13:02:14.671Z,15.30
2017-10-26T13:04:42.227Z,15.30
2017-10-26T13:07:09.855Z,15.30
2017-10-26T13:09:37.427Z,15.30
2017-10-26T13:12:04.987Z,15.20
2017-10-26T13:14:34.100Z,15.20
2017-10-26T13:17:01.712Z,15.20
2017-10-26T13:19:29.272Z,15.20
2017-10-26T13:21:56.896Z,15.30
2017-10-26T13:24:24.456Z,15.30
2017-10-26T13:26:52.783Z,15.30
2017-10-26T13:29:20.392Z,15.30
2017-10-26T13:31:47.960Z,15.30
2017-10-26T13:34:15.513Z,15.30
2017-10-26T13:36:43.884Z,15.10
2017-10-26T13:39:11.444Z,15.10
2017-10-26T13:41:39.009Z,15.10
2017-10-26T13:44:06.640Z,15.00
2017-10-26T13:46:34.201Z,15.00
2017-10-26T13:49:01.756Z,15.00
2017-10-26T13:51:29.515Z,14.90
2017-10-26T13:53:57.078Z,14.90
2017-10-26T13:56:25.399Z,14.80
2017-10-26T13:58:53.020Z,14.80
2017-10-26T14:01:20.600Z,14.80
2017-10-26T14:03:48.151Z,14.80
2017-10-26T14:06:15.899Z,14.70
2017-10-26T14:08:43.464Z,14.70
2017-10-26T14:11:11.795Z,14.70
2017-10-26T14:13:39.499Z,14.70
2017-10-26T14:16:07.057Z,14.70
2017-10-26T14:18:34.621Z,14.70
2017-10-26T14:21:02.392Z,14.60
2017-10-26T14:23:29.945Z,14.60
2017-10-26T14:25:58.271Z,14.50
2017-10-26T14:28:25.960Z,14.50
2017-10-26T14:30:54.294Z,14.50
2017-10-26T14:33:21.859Z,14.40
2017-10-26T14:35:49.471Z,14.40
2017-10-26T14:38:17.028Z,14.40
2017-10-26T14:40:44.587Z,14.40
2017-10-26T14:43:12.195Z,14.40
2017-10-26T14:45:39.761Z,14.40
2017-10-26T14:48:07.312Z,14.40
2017-10-26T14:50:35.099Z,14.40
2017-10-26T14:53:02.651Z,14.30
2017-10-26T14:55:30.981Z,14.30
2017-10-26T14:57:58.684Z,14.20
2017-10-26T15:00:26.243Z,14.20
2017-10-26T15:02:53.808Z,14.20
2017-10-26T15:05:21.428Z,14.20
2017-10-26T15:07:48.983Z,14.10
2017-10-26T15:10:16.549Z,14.10
2017-10-26T15:12:45.073Z,14.00
2017-10-26T15:15:12.640Z,14.00
2017-10-26T15:17:40.200Z,14.00
2017-10-26T15:20:07.973Z,13.90
2017-10-26T15:22:35.544Z,13.90
2017-10-26T15:25:03.109Z,13.80
2017-10-26T15:27:30.715Z,13.80
2017-10-26T15:29:59.052Z,13.70
2017-10-26T15:32:26.608Z,13.70
2017-10-26T15:34:54.342Z,13.60
2017-10-26T15:37:22.675Z,13.50
2017-10-26T15:39:50.223Z,13.50
2017-10-26T15:42:18.605Z,13.50
2017-10-26T15:44:46.204Z,13.50
2017-10-26T15:47:13.788Z,13.50
2017-10-26T15:49:41.488Z,13.40
2017-10-26T15:52:09.047Z,13.40
2017-10-26T15:54:36.612Z,13.30
2017-10-26T15:57:04.471Z,13.30
2017-10-26T15:59:32.040Z,13.30
2017-10-26T16:02:00.180Z,13.20
2017-10-26T16:04:28.559Z,13.20
2017-10-26T16:06:56.118Z,13.10
2017-10-26T16:09:23.681Z,13.10
2017-10-26T16:11:51.287Z,13.10
2017-10-26T16:14:18.855Z,13.10
2017-10-26T16:16:46.424Z,13.10
2017-10-26T16:19:14.036Z,13.10
2017-10-26T16:21:41.706Z,13.10
2017-10-26T16:24:09.267Z,13.00
2017-10-26T16:26:37.042Z,13.00
2017-10-26T16:29:05.369Z,13.00
2017-10-26T16:31:32.928Z,13.00
2017-10-26T16:34:00.536Z,13.00
2017-10-26T16:36:28.864Z,12.90
2017-10-26T16:38:56.420Z,12.90
2017-10-26T16:41:24.023Z,12.90
2017-10-26T16:43:51.586Z,12.90
2017-10-26T16:46:19.152Z,12.90
2017-10-26T16:48:46.760Z,12.80
2017-10-26T16:51:14.320Z,12.80
2017-10-26T16:53:41.876Z,12.80
2017-10-26T16:56:09.656Z,12.80
2017-10-26T16:58:37.983Z,12.70
2017-10-26T17:01:05.539Z,12.70
2017-10-26T17:03:33.956Z,12.70
2017-10-26T17:06:01.528Z,12.70
2017-10-26T17:08:29.086Z,12.60
2017-10-26T17:10:56.693Z,12.70
2017-10-26T17:13:24.256Z,12.60
2017-10-26T17:15:51.816Z,12.60
2017-10-26T17:18:19.516Z,12.60
2017-10-26T17:20:47.081Z,12.60
2017-10-26T17:23:14.636Z,12.60
2017-10-26T17:25:42.241Z,12.60
2017-10-26T17:28:09.806Z,12.60
2017-10-26T17:30:37.370Z,12.60
2017-10-26T17:33:04.979Z,12.60
2017-10-26T17:35:32.552Z,12.60
2017-10-26T17:38:00.884Z,12.60
2017-10-26T17:40:28.599Z,12.60
2017-10-26T17:42:56.162Z,12.70
2017-10-26T17:45:23.732Z,12.70
2017-10-26T17:47:51.491Z,12.70
2017-10-26T17:50:19.056Z,12.80
2017-10-26T17:52:47.384Z,12.80
2017-10-26T17:55:14.990Z,12.70
2017-10-26T17:57:42.547Z,12.80
2017-10-26T18:00:10.130Z,12.80
2017-10-26T18:02:37.888Z,12.80
2017-10-26T18:05:06.204Z,12.80
2017-10-26T18:07:33.761Z,12.80
2017-10-26T18:10:01.370Z,12.80
2017-10-26T18:12:28.932Z,12.80
2017-10-26T18:14:56.491Z,12.80
2017-10-26T18:17:24.155Z,12.80
2017-10-26T18:19:51.713Z,12.80
2017-10-26T18:22:20.041Z,12.80
2017-10-26T18:24:47.821Z,12.80
2017-10-26T18:27:16.144Z,12.70
2017-10-26T18:29:43.715Z,12.70
2017-10-26T18:32:11.332Z,12.70
2017-10-26T18:34:39.055Z,12.70
2017-10-26T18:37:06.612Z,12.70
2017-10-26T18:39:34.238Z,12.70
2017-10-26T18:42:01.795Z,12.70
2017-10-26T18:44:29.353Z,12.70
2017-10-26T18:46:56.957Z,12.60
2017-10-26T18:49:24.517Z,12.60
2017-10-26T18:51:52.869Z,12.50
2017-10-26T18:54:20.645Z,12.50
2017-10-26T18:56:48.203Z,12.50
2017-10-26T18:59:17.447Z,12.50
2017-10-26T19:01:45.056Z,12.50
2017-10-26T19:04:12.623Z,12.50
2017-10-26T19:06:40.180Z,12.50
2017-10-26T19:09:07.850Z,12.50
2017-10-26T19:11:35.990Z,12.50
2017-10-26T19:14:03.608Z,12.40
2017-10-26T19:16:31.234Z,12.40
2017-10-26T19:18:58.804Z,12.40
2017-10-26T19:21:26.355Z,12.30
2017-10-26T19:23:53.956Z,12.30
2017-10-26T19:26:22.279Z,12.30
2017-10-26T19:28:51.349Z,12.30
2017-10-26T19:31:18.967Z,12.30
2017-10-26T19:33:46.536Z,12.30
2017-10-26T19:36:14.860Z,12.30
2017-10-26T19:38:42.574Z,12.30
2017-10-26T19:41:10.142Z,12.20
2017-10-26T19:43:37.720Z,12.20
2017-10-26T19:46:06.107Z,12.20
2017-10-26T19:48:33.671Z,12.20
2017-10-26T19:51:01.236Z,12.20
2017-10-26T19:53:28.839Z,12.20
2017-10-26T19:55:56.408Z,12.20
2017-10-26T19:58:23.970Z,12.20
2017-10-26T20:00:51.593Z,12.20
2017-10-26T20:03:19.177Z,12.20
2017-10-26T20:05:46.744Z,12.20
2017-10-26T20:08:15.245Z,12.30
2017-10-26T20:10:42.816Z,12.20
2017-10-26T20:13:10.380Z,12.30
2017-10-26T20:15:38.139Z,12.30
2017-10-26T20:18:06.475Z,12.30
2017-10-26T20:20:34.049Z,12.30
2017-10-26T20:23:01.675Z,12.30
2017-10-26T20:25:29.240Z,12.30
2017-10-26T20:27:57.563Z,12.40
2017-10-26T20:30:25.337Z,12.40
2017-10-26T20:32:52.893Z,12.40
2017-10-26T20:35:20.448Z,12.30
2017-10-26T20:37:48.827Z,12.30
2017-10-26T20:40:16.386Z,12.30
2017-10-26T20:42:43.949Z,12.30
2017-10-26T20:45:11.747Z,12.20
2017-10-26T20:47:40.345Z,12.10
2017-10-26T20:50:13.579Z,12.10
2017-10-26T20:52:47.244Z,12.10
2017-10-26T20:55:20.875Z,12.00
2017-10-26T20:57:54.156Z,12.00
2017-10-26T21:00:27.512Z,12.00
2017-10-26T21:03:01.437Z,11.90
2017-10-26T21:05:34.635Z,11.90
2017-10-26T21:08:06.087Z,11.80
2017-10-26T21:10:39.420Z,11.80
2017-10-26T21:13:12.725Z,11.90
2017-10-26T21:15:40.345Z,11.90
2017-10-26T21:18:07.905Z,11.90
2017-10-26T21:20:35.468Z,11.90
2017-10-26T21:23:03.160Z,12.00
2017-10-26T21:25:31.484Z,12.00
2017-10-26T21:27:59.044Z,12.00
2017-10-26T21:30:28.144Z,12.00
2017-10-26T21:32:56.473Z,12.00
2017-10-26T21:35:24.035Z,12.00
2017-10-26T21:37:52.395Z,12.00
2017-10-26T21:40:20.954Z,12.00
2017-10-26T21:42:48.512Z,12.00
2017-10-26T21:45:16.894Z,11.90
2017-10-26T21:47:44.476Z,11.90
2017-10-26T21:50:12.035Z,11.90
2017-10-26T21:52:39.639Z,11.90
2017-10-26T21:55:07.204Z,11.90
2017-10-26T21:57:34.756Z,11.90
2017-10-26T22:00:02.368Z,11.90
2017-10-26T22:02:29.928Z,11.90
2017-10-26T22:04:57.486Z,11.90
2017-10-26T22:07:25.107Z,11.90
2017-10-26T22:09:52.675Z,11.90
2017-10-26T22:12:20.232Z,11.90
2017-10-26T22:14:47.857Z,11.90
2017-10-26T22:17:15.411Z,11.90
2017-10-26T22:19:43.016Z,11.90
2017-10-26T22:22:10.628Z,11.80
2017-10-26T22:24:38.951Z,11.80
2017-10-26T22:27:06.507Z,11.80
2017-10-26T22:29:34.105Z,11.80
2017-10-26T22:32:01.659Z,11.90
2017-10-26T22:34:29.229Z,11.80
2017-10-26T22:36:56.830Z,11.80
2017-10-26T22:39:24.384Z,11.80
2017-10-26T22:41:51.936Z,11.80
2017-10-26T22:44:19.719Z,11.80
2017-10-26T22:46:48.041Z,11.70
2017-10-26T22:49:15.596Z,11.70
2017-10-26T22:51:43.920Z,11.70
2017-10-26T22:54:11.491Z,11.70
2017-10-26T22:56:39.043Z,11.70
2017-10-26T22:59:07.061Z,11.70
2017-10-26T23:01:34.616Z,11.70
2017-10-26T23:04:02.171Z,11.70
2017-10-26T23:06:30.060Z,11.60
2017-10-26T23:08:58.392Z,11.70
2017-10-26T23:11:25.948Z,11.70
2017-10-26T23:13:53.551Z,11.60
2017-10-26T23:16:21.104Z,11.60
2017-10-26T23:18:48.660Z,11.60
2017-10-26T23:21:16.272Z,11.70
2017-10-26T23:23:43.837Z,11.60
2017-10-26T23:26:11.388Z,11.60
2017-10-26T23:28:39.148Z,11.60
2017-10-26T23:31:06.712Z,11.60
2017-10-26T23:33:34.280Z,11.50
2017-10-26T23:36:02.072Z,11.50
2017-10-26T23:38:29.626Z,11.50
2017-10-26T23:40:57.943Z,11.40
2017-10-26T23:43:25.543Z,11.40
2017-10-26T23:45:53.097Z,11.40
2017-10-26T23:48:20.646Z,11.30
2017-10-26T23:50:48.260Z,11.20
2017-10-26T23:53:16.586Z,11.20
2017-10-26T23:55:44.143Z,11.10
2017-10-26T23:58:11.744Z,11.10
